Time;durP1;ratioP1;P1;durP2;ratioP2;P2;SDS_P1;SDS_P2;PMS_P1;PMS_P2;Temp;Humidity;BMP_temperature;BMP_pressure;BME280_temperature;BME280_humidity;BME280_pressure;Samples;Min_cycle;Max_cycle;Signal;HPM_P1;HPM_P2
2023/11/06 00:00:55;;;;;;;;;;;;;;;;;;4905855;29;19932;-83
2023/11/06 00:03:27;;;;;;;;;;;;;;;;;;4922649;29;19927;-81
2023/11/06 00:05:53;;;;;;;;;;;;;;;;;;4923648;29;19943;-83
2023/11/06 00:08:25;;;;;;;;;;;;;;;;;;4939414;28;19915;-82
2023/11/06 00:11:00;;;;;;;;;;;;;;;;;;4923701;29;19903;-83
2023/11/06 00:13:27;;;;;;;;;;;;;;;;;;4923725;29;19908;-81
2023/11/06 00:15:54;;;;;;;;;;;;;;;;;;4923413;29;19919;-84
2023/11/06 00:18:27;;;;;;;;;;;;;;;;;;4939410;28;19920;-83
2023/11/06 00:20:58;;;;;;;;;;;;;;;;;;4891912;29;19928;-81
2023/11/06 00:23:32;;;;;;;;;;;;;;;;;;4905012;29;19924;-83
2023/11/06 00:26:03;;;;;;;;;;;;;;;;;;4920757;29;19924;-82
2023/11/06 00:28:30;;;;;;;;;;;;;;;;;;4920749;28;19911;-82
2023/11/06 00:30:57;;;;;;;;;;;;;;;;;;4889258;29;19916;-80
2023/11/06 00:33:34;;;;;;;;;;;;;;;;;;4904803;29;19945;-81
2023/11/06 00:36:04;;;;;;;;;;;;;;;;;;4904232;29;19949;-81
2023/11/06 00:38:30;;;;;;;;;;;;;;;;;;4934969;28;19996;-81
2023/11/06 00:40:57;;;;;;;;;;;;;;;;;;4935067;28;20040;-83
2023/11/06 00:43:28;;;;;;;;;;;;;;;;;;4918187;29;19904;-82
2023/11/06 00:45:55;;;;;;;;;;;;;;;;;;4916462;29;19940;-83
2023/11/06 00:48:25;;;;;;;;;;;;;;;;;;4913589;29;19931;-83
2023/11/06 00:50:56;;;;;;;;;;;;;;;;;;4912070;29;19916;-83
2023/11/06 00:53:22;;;;;;;;;;;;;;;;;;4915368;29;19922;-83
2023/11/06 00:55:51;;;;;;;;;;;;;;;;;;4915892;29;19919;-83
2023/11/06 00:58:27;;;;;;;;;;;;;;;;;;4904515;29;19935;-82
2023/11/06 01:00:55;;;;;;;;;;;;;;;;;;4917664;29;19924;-83
2023/11/06 01:03:24;;;;;;;;;;;;;;;;;;4900028;29;19919;-82
2023/11/06 01:05:51;;;;;;;;;;;;;;;;;;4915621;29;19966;-82
2023/11/06 01:08:16;;;;;;;;;;;;;;;;;;4916405;29;19916;-83
2023/11/06 01:10:42;;;;;;;;;;;;;;;;;;4902078;29;20014;-82
2023/11/06 01:13:09;;;;;;;;;;;;;;;;;;4916981;29;20076;-83
2023/11/06 01:15:35;;;;;;;;;;;;;;;;;;4915818;29;19919;-83
2023/11/06 01:18:05;;;;;;;;;;;;;;;;;;4915504;29;19915;-82
2023/11/06 01:20:35;;;;;;;;;;;;;;;;;;4931450;29;19916;-82
2023/11/06 01:23:03;;;;;;;;;;;;;;;;;;4915424;29;19915;-83
2023/11/06 01:25:43;;;;;;;;;;;;;;;;;;4916575;29;19923;-83
2023/11/06 01:28:09;;;;;;;;;;;;;;;;;;4917492;29;19962;-82
2023/11/06 01:30:43;;;;;;;;;;;;;;;;;;4916786;29;19982;-83
2023/11/06 01:33:11;;;;;;;;;;;;;;;;;;4917158;29;19915;-83
2023/11/06 01:35:40;;;;;;;;;;;;;;;;;;4914959;29;19943;-82
2023/11/06 01:38:20;;;;;;;;;;;;;;;;;;4914497;29;19915;-81
2023/11/06 01:40:51;;;;;;;;;;;;;;;;;;4912669;29;19931;-82
2023/11/06 01:43:19;;;;;;;;;;;;;;;;;;4898168;29;19947;-82
2023/11/06 01:45:49;;;;;;;;;;;;;;;;;;4892773;29;19916;-82
2023/11/06 01:48:17;;;;;;;;;;;;;;;;;;4892709;29;19955;-83
2023/11/06 01:50:47;;;;;;;;;;;;;;;;;;4894869;29;19911;-82
2023/11/06 01:53:13;;;;;;;;;;;;;;;;;;4899538;29;19923;-83
2023/11/06 01:55:50;;;;;;;;;;;;;;;;;;4897537;29;19912;-83
2023/11/06 01:58:18;;;;;;;;;;;;;;;;;;4899636;29;19916;-82
2023/11/06 02:00:52;;;;;;;;;;;;;;;;;;4904410;29;19928;-82
2023/11/06 02:03:24;;;;;;;;;;;;;;;;;;4918022;29;20089;-82
2023/11/06 02:05:50;;;;;;;;;;;;;;;;;;4888836;29;19914;-83
2023/11/06 02:08:19;;;;;;;;;;;;;;;;;;4887121;29;19934;-82
2023/11/06 02:10:49;;;;;;;;;;;;;;;;;;4901887;29;19916;-83
2023/11/06 02:13:17;;;;;;;;;;;;;;;;;;4902822;29;19955;-81
2023/11/06 02:15:44;;;;;;;;;;;;;;;;;;4917162;29;19925;-82
2023/11/06 02:18:13;;;;;;;;;;;;;;;;;;4921049;29;19962;-82
2023/11/06 02:20:44;;;;;;;;;;;;;;;;;;4921111;29;19911;-83
2023/11/06 02:23:12;;;;;;;;;;;;;;;;;;4936860;28;19910;-84
2023/11/06 02:25:42;;;;;;;;;;;;;;;;;;4921737;29;19928;-83
2023/11/06 02:28:24;;;;;;;;;;;;;;;;;;5551089;23;19926;-81
2023/11/06 02:30:52;;;;;;;;;;;;;;;;;;4959000;28;19962;-82
2023/11/06 02:33:25;;;;;;;;;;;;;;;;;;4940637;28;19996;-83
2023/11/06 02:35:53;;;;;;;;;;;;;;;;;;4940498;28;19931;-82
2023/11/06 02:38:19;;;;;;;;;;;;;;;;;;4924337;28;19899;-83
2023/11/06 02:40:46;;;;;;;;;;;;;;;;;;4955473;28;19927;-83
2023/11/06 02:43:17;;;;;;;;;;;;;;;;;;4939942;28;19915;-83
2023/11/06 02:45:44;;;;;;;;;;;;;;;;;;4924377;28;19960;-83
2023/11/06 02:48:12;;;;;;;;;;;;;;;;;;4924412;28;19946;-82
2023/11/06 02:50:38;;;;;;;;;;;;;;;;;;4952768;28;19908;-83
2023/11/06 02:53:05;;;;;;;;;;;;;;;;;;4955603;28;19962;-83
2023/11/06 02:55:34;;;;;;;;;;;;;;;;;;4940106;28;19919;-83
2023/11/06 02:58:07;;;;;;;;;;;;;;;;;;4937128;29;19920;-82
2023/11/06 03:00:39;;;;;;;;;;;;;;;;;;4936050;29;19947;-82
2023/11/06 03:03:08;;;;;;;;;;;;;;;;;;4936009;29;19974;-82
2023/11/06 03:05:36;;;;;;;;;;;;;;;;;;4931054;29;19939;-82
2023/11/06 03:08:03;;;;;;;;;;;;;;;;;;4931855;29;19915;-82
2023/11/06 03:10:29;;;;;;;;;;;;;;;;;;4921115;29;19974;-82
2023/11/06 03:12:56;;;;;;;;;;;;;;;;;;4954970;28;19904;-82
2023/11/06 03:15:23;;;;;;;;;;;;;;;;;;4938926;28;19900;-82
2023/11/06 03:17:53;;;;;;;;;;;;;;;;;;4926629;28;19904;-82
2023/11/06 03:20:34;;;;;;;;;;;;;;;;;;4958174;28;19951;-82
2023/11/06 03:23:01;;;;;;;;;;;;;;;;;;4957428;29;19919;-83
2023/11/06 03:25:29;;;;;;;;;;;;;;;;;;4925615;29;19958;-82
2023/11/06 03:27:59;;;;;;;;;;;;;;;;;;4925783;29;19907;-83
2023/11/06 03:30:26;;;;;;;;;;;;;;;;;;4925673;29;19926;-83
2023/11/06 03:33:01;;;;;;;;;;;;;;;;;;4941056;29;19906;-83
2023/11/06 03:35:28;;;;;;;;;;;;;;;;;;4941582;29;19918;-83
2023/11/06 03:37:59;;;;;;;;;;;;;;;;;;4925980;29;19915;-84
2023/11/06 03:40:25;;;;;;;;;;;;;;;;;;4935459;29;19919;-83
2023/11/06 03:42:52;;;;;;;;;;;;;;;;;;4947263;29;19915;-82
2023/11/06 03:45:18;;;;;;;;;;;;;;;;;;4934855;29;20394;-82
2023/11/06 03:47:46;;;;;;;;;;;;;;;;;;4964382;29;19922;-82
2023/11/06 03:50:20;;;;;;;;;;;;;;;;;;4934877;29;20021;-82
2023/11/06 03:52:54;;;;;;;;;;;;;;;;;;4949037;29;19921;-82
2023/11/06 03:55:34;;;;;;;;;;;;;;;;;;4964575;29;19915;-83
2023/11/06 03:58:04;;;;;;;;;;;;;;;;;;4934959;29;19990;-83
2023/11/06 04:00:33;;;;;;;;;;;;;;;;;;4933301;29;19919;-81
2023/11/06 04:03:05;;;;;;;;;;;;;;;;;;4966352;29;19985;-83
2023/11/06 04:05:32;;;;;;;;;;;;;;;;;;4934776;29;19915;-83
2023/11/06 04:08:04;;;;;;;;;;;;;;;;;;4950800;29;19917;-83
2023/11/06 04:10:33;;;;;;;;;;;;;;;;;;4936065;29;19915;-83
2023/11/06 04:13:02;;;;;;;;;;;;;;;;;;4916479;29;19938;-82
2023/11/06 04:15:32;;;;;;;;;;;;;;;;;;4929396;29;19942;-83
2023/11/06 04:18:01;;;;;;;;;;;;;;;;;;4915698;29;20228;-83
2023/11/06 04:20:30;;;;;;;;;;;;;;;;;;4922087;29;19960;-82
2023/11/06 04:23:00;;;;;;;;;;;;;;;;;;4924534;29;19915;-83
2023/11/06 04:25:40;;;;;;;;;;;;;;;;;;4940631;28;19911;-83
2023/11/06 04:28:22;;;;;;;;;;;;;;;;;;4925240;28;19992;-82
2023/11/06 04:31:08;;;;;;;;;;;;;;;;;;4941539;28;19903;-83
2023/11/06 04:33:37;;;;;;;;;;;;;;;;;;4924369;29;19922;-82
2023/11/06 04:36:09;;;;;;;;;;;;;;;;;;4922851;29;19954;-82
2023/11/06 04:38:38;;;;;;;;;;;;;;;;;;4937987;28;19919;-82
2023/11/06 04:41:10;;;;;;;;;;;;;;;;;;4935250;29;19934;-83
2023/11/06 04:43:38;;;;;;;;;;;;;;;;;;4918197;29;19965;-82
2023/11/06 04:46:09;;;;;;;;;;;;;;;;;;4921235;29;20377;-82
2023/11/06 04:48:36;;;;;;;;;;;;;;;;;;4950708;29;19922;-83
2023/11/06 04:51:05;;;;;;;;;;;;;;;;;;4933984;29;19915;-82
2023/11/06 04:53:31;;;;;;;;;;;;;;;;;;4917250;29;19922;-82
2023/11/06 04:56:06;;;;;;;;;;;;;;;;;;4920204;29;19942;-83
2023/11/06 04:58:35;;;;;;;;;;;;;;;;;;4915751;29;19915;-83
2023/11/06 05:01:02;;;;;;;;;;;;;;;;;;4920689;29;19951;-82
2023/11/06 05:03:39;;;;;;;;;;;;;;;;;;4947149;29;19918;-83
2023/11/06 05:06:08;;;;;;;;;;;;;;;;;;4941874;29;19903;-82
2023/11/06 05:08:38;;;;;;;;;;;;;;;;;;4941581;29;19973;-82
2023/11/06 05:11:12;;;;;;;;;;;;;;;;;;4957199;29;19973;-82
2023/11/06 05:13:38;;;;;;;;;;;;;;;;;;4943445;28;19913;-82
2023/11/06 05:16:11;;;;;;;;;;;;;;;;;;4945097;28;19903;-83
2023/11/06 05:18:39;;;;;;;;;;;;;;;;;;4956255;28;19919;-81
2023/11/06 05:21:17;;;;;;;;;;;;;;;;;;4940431;28;20595;-81
2023/11/06 05:23:51;;;;;;;;;;;;;;;;;;4956060;28;19926;-83
2023/11/06 05:26:23;;;;;;;;;;;;;;;;;;4940384;29;19911;-83
2023/11/06 05:28:50;;;;;;;;;;;;;;;;;;4939109;29;19955;-83
2023/11/06 05:31:17;;;;;;;;;;;;;;;;;;4952695;29;19919;-82
2023/11/06 05:33:50;;;;;;;;;;;;;;;;;;4938257;29;19934;-82
2023/11/06 05:36:22;;;;;;;;;;;;;;;;;;4955606;29;19925;-83
2023/11/06 05:38:56;;;;;;;;;;;;;;;;;;4940310;28;19923;-81
2023/11/06 05:41:22;;;;;;;;;;;;;;;;;;4926174;29;19923;-82
2023/11/06 05:43:55;;;;;;;;;;;;;;;;;;4942505;29;19962;-82
2023/11/06 05:46:31;;;;;;;;;;;;;;;;;;4929525;28;19907;-83
2023/11/06 05:48:59;;;;;;;;;;;;;;;;;;4959068;29;19915;-82
2023/11/06 05:51:30;;;;;;;;;;;;;;;;;;4941705;28;19919;-84
2023/11/06 05:54:01;;;;;;;;;;;;;;;;;;4933398;29;19915;-83
2023/11/06 05:56:33;;;;;;;;;;;;;;;;;;4918175;29;19971;-82
2023/11/06 05:59:01;;;;;;;;;;;;;;;;;;4930713;29;19970;-82
2023/11/06 06:01:41;;;;;;;;;;;;;;;;;;4933550;29;19919;-84
2023/11/06 06:04:07;;;;;;;;;;;;;;;;;;4920202;29;19927;-83
2023/11/06 06:06:34;;;;;;;;;;;;;;;;;;4921488;29;19900;-83
2023/11/06 06:09:01;;;;;;;;;;;;;;;;;;4925456;29;19915;-83
2023/11/06 06:11:28;;;;;;;;;;;;;;;;;;4922650;29;19923;-82
2023/11/06 06:14:03;;;;;;;;;;;;;;;;;;4922300;28;19930;-81
2023/11/06 06:16:34;;;;;;;;;;;;;;;;;;4921843;29;19915;-83
2023/11/06 06:19:07;;;;;;;;;;;;;;;;;;4923264;29;19942;-83
2023/11/06 06:21:38;;;;;;;;;;;;;;;;;;4921439;29;19929;-82
2023/11/06 06:24:10;;;;;;;;;;;;;;;;;;4936654;29;19970;-82
2023/11/06 06:26:58;;;;;;;;;;;;;;;;;;4936971;29;20051;-83
2023/11/06 06:29:33;;;;;;;;;;;;;;;;;;4936465;29;19919;-83
2023/11/06 06:32:15;;;;;;;;;;;;;;;;;;4921939;29;19906;-83
2023/11/06 06:34:48;;;;;;;;;;;;;;;;;;4923006;29;19910;-83
2023/11/06 06:37:29;;;;;;;;;;;;;;;;;;4937722;29;19934;-84
2023/11/06 06:58:55;;;;;;;;;;;;;;;;;;5252621;23;19922;-82
2023/11/06 07:01:25;;;;;;;;;;;;;;;;;;4963647;28;19946;-83
2023/11/06 07:03:55;;;;;;;;;;;;;;;;;;4965647;29;20392;-84
2023/11/06 07:06:21;;;;;;;;;;;;;;;;;;4965114;28;20409;-81
2023/11/06 07:08:59;;;;;;;;;;;;;;;;;;4963711;29;19999;-83
2023/11/06 07:11:32;;;;;;;;;;;;;;;;;;4962622;28;20000;-84
2023/11/06 07:14:28;;;;;;;;;;;;;;;;;;4946161;29;19925;-84
2023/11/06 07:17:12;;;;;;;;;;;;;;;;;;4962437;29;19914;-83
2023/11/06 07:19:53;;;;;;;;;;;;;;;;;;4980594;28;19910;-84
2023/11/06 07:22:51;;;;;;;;;;;;;;;;;;4981376;28;19913;-83
2023/11/06 08:18:26;;;;;;;;;;;;;;;;;;4998030;28;19953;-84
2023/11/06 08:36:14;;;;;;;;;;;;;;;;;;5000439;28;19952;-83
2023/11/06 08:38:49;;;;;;;;;;;;;;;;;;4985516;28;20006;-83
2023/11/06 08:42:24;;;;;;;;;;;;;;;;;;;;;
2023/11/06 08:45:29;;;;;;;;;;;;;;;;;;4975942;28;19926;-84
2023/11/06 09:44:42;;;;;;;;;;;;;;;;;;5353941;23;19926;-84
2023/11/06 09:51:07;;;;;;;;;;;;;;;;;;4978119;28;19917;-83
2023/11/06 11:48:03;;;;;;;;;;;;;;;;;;5620881;23;19926;-79
2023/11/06 11:50:35;;;;;;;;;;;;;;;;;;4999784;28;19914;-79
2023/11/06 11:53:08;;;;;;;;;;;;;;;;;;4979421;28;19917;-79
2023/11/06 11:55:38;;;;;;;;;;;;;;;;;;4979291;28;19968;-78
2023/11/06 11:58:40;;;;;;;;;;;;;;;;;;4994729;28;19914;-78
2023/11/06 12:01:09;;;;;;;;;;;;;;;;;;4947155;28;19989;-79
2023/11/06 12:03:36;;;;;;;;;;;;;;;;;;4965430;28;19949;-80
2023/11/06 12:06:10;;;;;;;;;;;;;;;;;;4978357;28;19937;-80
2023/11/06 12:08:41;;;;;;;;;;;;;;;;;;4983463;28;19928;-80
2023/11/06 12:11:07;;;;;;;;;;;;;;;;;;4979082;28;19946;-78
2023/11/06 12:13:43;;;;;;;;;;;;;;;;;;5008808;28;19970;-79
2023/11/06 12:16:19;;;;;;;;;;;;;;;;;;4962699;28;19914;-79
2023/11/06 12:18:47;;;;;;;;;;;;;;;;;;4993199;28;19914;-80
2023/11/06 12:21:15;;;;;;;;;;;;;;;;;;4995606;28;19918;-78
2023/11/06 12:23:49;;;;;;;;;;;;;;;;;;4976518;28;19918;-78
2023/11/06 12:26:22;;;;;;;;;;;;;;;;;;4979061;28;20456;-79
2023/11/06 12:28:48;;;;;;;;;;;;;;;;;;4962743;28;19974;-80
2023/11/06 12:31:39;;;;;;;;;;;;;;;;;;4976562;28;19914;-79
2023/11/06 12:34:30;;;;;;;;;;;;;;;;;;4965206;28;19961;-79
2023/11/06 12:37:03;;;;;;;;;;;;;;;;;;4943368;29;19918;-78
2023/11/06 12:39:41;;;;;;;;;;;;;;;;;;4965370;28;19915;-80
2023/11/06 12:42:08;;;;;;;;;;;;;;;;;;4932979;28;19925;-79
2023/11/06 12:47:52;;;;;;;;;;;;;;;;;;4979442;28;19922;-79
2023/11/06 12:50:34;;;;;;;;;;;;;;;;;;4962998;28;19995;-80
2023/11/06 12:53:26;;;;;;;;;;;;;;;;;;4976249;28;19922;-79
2023/11/06 12:56:05;;;;;;;;;;;;;;;;;;4970432;28;19936;-80
2023/11/06 12:58:45;;;;;;;;;;;;;;;;;;4962990;28;19921;-79
2023/11/06 13:01:29;;;;;;;;;;;;;;;;;;4947660;28;19981;-81
2023/11/06 13:03:59;;;;;;;;;;;;;;;;;;4945163;29;19921;-79
2023/11/06 13:06:31;;;;;;;;;;;;;;;;;;4976559;28;20298;-80
2023/11/06 13:08:58;;;;;;;;;;;;;;;;;;4944122;29;19942;-80
2023/11/06 13:11:26;;;;;;;;;;;;;;;;;;4975710;28;19961;-81
2023/11/06 13:13:55;;;;;;;;;;;;;;;;;;4968267;28;20004;-79
2023/11/06 13:16:25;;;;;;;;;;;;;;;;;;4947866;28;19973;-79
2023/11/06 13:18:53;;;;;;;;;;;;;;;;;;4946999;29;19914;-81
2023/11/06 13:21:30;;;;;;;;;;;;;;;;;;4961755;28;19925;-80
2023/11/06 13:24:01;;;;;;;;;;;;;;;;;;4945436;29;19968;-79
2023/11/06 13:26:45;;;;;;;;;;;;;;;;;;4963319;28;19986;-79
2023/11/06 13:29:30;;;;;;;;;;;;;;;;;;4976788;28;19914;-78
2023/11/06 13:31:59;;;;;;;;;;;;;;;;;;4968242;28;19921;-79
2023/11/06 13:34:39;;;;;;;;;;;;;;;;;;4967867;28;19914;-80
2023/11/06 13:37:13;;;;;;;;;;;;;;;;;;4966788;28;19945;-80
2023/11/06 13:40:18;;;;;;;;;;;;;;;;;;4983953;28;19914;-78
2023/11/06 13:42:47;;;;;;;;;;;;;;;;;;4966730;28;19972;-79
2023/11/06 13:45:24;;;;;;;;;;;;;;;;;;4982967;28;19910;-79
2023/11/06 13:48:13;;;;;;;;;;;;;;;;;;4972750;28;19913;-80
2023/11/06 13:50:59;;;;;;;;;;;;;;;;;;4966454;28;19925;-80
2023/11/06 13:53:41;;;;;;;;;;;;;;;;;;4936088;29;19937;-78
2023/11/06 13:56:21;;;;;;;;;;;;;;;;;;4974698;28;19924;-79
2023/11/06 13:58:50;;;;;;;;;;;;;;;;;;4989914;28;19914;-79
2023/11/06 14:01:46;;;;;;;;;;;;;;;;;;4990750;28;19957;-79
2023/11/06 14:04:51;;;;;;;;;;;;;;;;;;;;;
2023/11/06 14:07:19;;;;;;;;;;;;;;;;;;4961950;29;20288;-80
2023/11/06 14:09:51;;;;;;;;;;;;;;;;;;4954384;28;19922;-78
2023/11/06 14:12:20;;;;;;;;;;;;;;;;;;4956638;29;19938;-79
2023/11/06 14:14:46;;;;;;;;;;;;;;;;;;4926417;29;19929;-79
2023/11/06 14:17:14;;;;;;;;;;;;;;;;;;4926983;29;19911;-79
2023/11/06 14:19:42;;;;;;;;;;;;;;;;;;4930269;29;19914;-79
2023/11/06 14:22:11;;;;;;;;;;;;;;;;;;4928465;29;19922;-79
2023/11/06 14:24:41;;;;;;;;;;;;;;;;;;4913581;29;19974;-79
2023/11/06 14:27:10;;;;;;;;;;;;;;;;;;4932889;29;19930;-79
2023/11/06 14:29:36;;;;;;;;;;;;;;;;;;4933584;29;19938;-79
2023/11/06 14:32:04;;;;;;;;;;;;;;;;;;4938386;29;19915;-79
2023/11/06 14:34:30;;;;;;;;;;;;;;;;;;4984888;28;20077;-80
2023/11/06 14:36:59;;;;;;;;;;;;;;;;;;4974865;28;19924;-79
2023/11/06 14:39:25;;;;;;;;;;;;;;;;;;4973687;28;19910;-80
2023/11/06 14:41:50;;;;;;;;;;;;;;;;;;4947562;28;19926;-80
2023/11/06 14:44:25;;;;;;;;;;;;;;;;;;4957155;28;19925;-79
2023/11/06 14:46:52;;;;;;;;;;;;;;;;;;4964638;29;19915;-80
2023/11/06 14:49:21;;;;;;;;;;;;;;;;;;4948693;29;19914;-78
2023/11/06 14:51:56;;;;;;;;;;;;;;;;;;4959540;29;19915;-79
2023/11/06 14:54:29;;;;;;;;;;;;;;;;;;4992583;28;19922;-80
2023/11/06 14:57:01;;;;;;;;;;;;;;;;;;4958322;28;19915;-79
2023/11/06 14:59:27;;;;;;;;;;;;;;;;;;4976306;28;20300;-79
2023/11/06 15:02:03;;;;;;;;;;;;;;;;;;4943798;29;19925;-77
2023/11/06 15:04:43;;;;;;;;;;;;;;;;;;4960109;29;19914;-79
2023/11/06 15:07:16;;;;;;;;;;;;;;;;;;4957788;28;19915;-79
2023/11/06 15:10:04;;;;;;;;;;;;;;;;;;4958893;29;19925;-80
2023/11/06 15:12:40;;;;;;;;;;;;;;;;;;4992385;28;20296;-81
2023/11/06 15:15:34;;;;;;;;;;;;;;;;;;4988998;28;20369;-79
2023/11/06 15:18:17;;;;;;;;;;;;;;;;;;4964365;29;19915;-79
2023/11/06 15:21:06;;;;;;;;;;;;;;;;;;4966808;28;20378;-79
2023/11/06 15:23:42;;;;;;;;;;;;;;;;;;4992051;28;19937;-80
2023/11/06 15:26:27;;;;;;;;;;;;;;;;;;4985046;28;19968;-81
2023/11/06 15:28:59;;;;;;;;;;;;;;;;;;4947658;28;19922;-80
2023/11/06 15:31:32;;;;;;;;;;;;;;;;;;4962584;28;20488;-78
2023/11/06 15:34:03;;;;;;;;;;;;;;;;;;4994627;28;20259;-80
2023/11/06 15:37:03;;;;;;;;;;;;;;;;;;4967210;28;20525;-79
2023/11/06 15:39:37;;;;;;;;;;;;;;;;;;4968019;28;19921;-79
2023/11/06 15:44:56;;;;;;;;;;;;;;;;;;4995631;28;19914;-80
2023/11/06 15:47:38;;;;;;;;;;;;;;;;;;4976724;28;19914;-80
2023/11/06 15:50:13;;;;;;;;;;;;;;;;;;4958256;28;19919;-79
2023/11/06 15:53:10;;;;;;;;;;;;;;;;;;4960812;29;19922;-78
2023/11/06 15:55:49;;;;;;;;;;;;;;;;;;4960800;28;19965;-79
2023/11/06 15:58:51;;;;;;;;;;;;;;;;;;4960794;29;20285;-79
2023/11/06 16:01:36;;;;;;;;;;;;;;;;;;4962018;28;19930;-81
2023/11/06 16:04:09;;;;;;;;;;;;;;;;;;4930743;29;20395;-79
2023/11/06 16:06:42;;;;;;;;;;;;;;;;;;4961946;28;20002;-79
2023/11/06 16:09:28;;;;;;;;;;;;;;;;;;4961731;29;19918;-79
2023/11/06 16:12:02;;;;;;;;;;;;;;;;;;4993777;28;19920;-78
2023/11/06 16:14:55;;;;;;;;;;;;;;;;;;4939417;28;19914;-80
2023/11/06 16:17:27;;;;;;;;;;;;;;;;;;4980083;28;20042;-79
2023/11/06 16:19:54;;;;;;;;;;;;;;;;;;4947493;28;20265;-80
2023/11/06 16:22:21;;;;;;;;;;;;;;;;;;5010061;28;19918;-80
2023/11/06 16:24:52;;;;;;;;;;;;;;;;;;4960128;28;19989;-79
2023/11/06 16:27:20;;;;;;;;;;;;;;;;;;4952924;28;19990;-79
2023/11/06 16:29:47;;;;;;;;;;;;;;;;;;4957792;28;20293;-80
2023/11/06 16:32:13;;;;;;;;;;;;;;;;;;4946754;28;19918;-80
2023/11/06 16:34:39;;;;;;;;;;;;;;;;;;4950496;28;19910;-80
2023/11/06 16:37:08;;;;;;;;;;;;;;;;;;4974806;28;19985;-80
2023/11/06 16:39:33;;;;;;;;;;;;;;;;;;4977241;28;19906;-80
2023/11/06 16:41:59;;;;;;;;;;;;;;;;;;5006304;28;19968;-80
2023/11/06 16:44:25;;;;;;;;;;;;;;;;;;4976876;28;19914;-79
2023/11/06 16:46:51;;;;;;;;;;;;;;;;;;4979240;28;19934;-79
2023/11/06 16:49:20;;;;;;;;;;;;;;;;;;4983638;28;19914;-79
2023/11/06 16:51:46;;;;;;;;;;;;;;;;;;4978819;28;19910;-80
2023/11/06 16:54:11;;;;;;;;;;;;;;;;;;4955634;28;19972;-79
2023/11/06 16:56:38;;;;;;;;;;;;;;;;;;4963485;28;19913;-81
2023/11/06 16:59:04;;;;;;;;;;;;;;;;;;4994191;28;19914;-79
2023/11/06 17:01:36;;;;;;;;;;;;;;;;;;4957381;28;19928;-79
2023/11/06 17:04:01;;;;;;;;;;;;;;;;;;4975133;28;20004;-80
2023/11/06 17:06:28;;;;;;;;;;;;;;;;;;4942441;29;19960;-80
2023/11/06 17:08:54;;;;;;;;;;;;;;;;;;4975239;28;19914;-81
2023/11/06 17:11:23;;;;;;;;;;;;;;;;;;4946535;28;19910;-80
2023/11/06 17:13:49;;;;;;;;;;;;;;;;;;4980403;28;19946;-81
2023/11/06 17:16:16;;;;;;;;;;;;;;;;;;4946269;29;19954;-81
2023/11/06 17:18:42;;;;;;;;;;;;;;;;;;4932736;29;19914;-80
2023/11/06 17:21:09;;;;;;;;;;;;;;;;;;4932421;29;19982;-81
2023/11/06 17:23:38;;;;;;;;;;;;;;;;;;4962417;29;19915;-80
2023/11/06 17:26:05;;;;;;;;;;;;;;;;;;4945049;29;20262;-80
2023/11/06 17:28:30;;;;;;;;;;;;;;;;;;4943868;29;20072;-82
2023/11/06 17:31:06;;;;;;;;;;;;;;;;;;4977052;28;19910;-79
2023/11/06 17:33:31;;;;;;;;;;;;;;;;;;4946764;28;19981;-79
2023/11/06 17:35:58;;;;;;;;;;;;;;;;;;4925363;29;20344;-81
2023/11/06 17:38:25;;;;;;;;;;;;;;;;;;4925707;29;20559;-80
2023/11/06 17:40:51;;;;;;;;;;;;;;;;;;4955551;28;20293;-79
2023/11/06 17:43:17;;;;;;;;;;;;;;;;;;4945381;28;19926;-78
2023/11/06 17:45:42;;;;;;;;;;;;;;;;;;4970029;28;19946;-79
2023/11/06 17:48:09;;;;;;;;;;;;;;;;;;4923526;29;19993;-78
2023/11/06 17:50:36;;;;;;;;;;;;;;;;;;4957507;28;19921;-79
2023/11/06 17:53:01;;;;;;;;;;;;;;;;;;4956762;28;19918;-79
2023/11/06 17:55:27;;;;;;;;;;;;;;;;;;4965742;28;19918;-78
2023/11/06 17:57:53;;;;;;;;;;;;;;;;;;4940382;29;19921;-79
2023/11/06 18:00:18;;;;;;;;;;;;;;;;;;4962554;28;19972;-80
2023/11/06 18:02:47;;;;;;;;;;;;;;;;;;4959538;28;19976;-80
2023/11/06 18:05:12;;;;;;;;;;;;;;;;;;4943047;28;20005;-79
2023/11/06 18:07:41;;;;;;;;;;;;;;;;;;4958816;28;20376;-79
2023/11/06 18:10:24;;;;;;;;;;;;;;;;;;4956775;28;19968;-79
2023/11/06 18:12:53;;;;;;;;;;;;;;;;;;4956420;28;19915;-79
2023/11/06 18:15:18;;;;;;;;;;;;;;;;;;4986489;28;19976;-80
2023/11/06 18:17:44;;;;;;;;;;;;;;;;;;4978966;28;19917;-79
2023/11/06 18:20:10;;;;;;;;;;;;;;;;;;4977219;28;19910;-80
2023/11/06 18:22:37;;;;;;;;;;;;;;;;;;4995792;28;20387;-79
2023/11/06 18:25:04;;;;;;;;;;;;;;;;;;4961355;28;20019;-80
2023/11/06 18:27:35;;;;;;;;;;;;;;;;;;5027837;28;19913;-80
2023/11/06 18:30:01;;;;;;;;;;;;;;;;;;4995025;28;20376;-78
2023/11/06 18:32:26;;;;;;;;;;;;;;;;;;4946126;29;19919;-78
2023/11/06 18:34:52;;;;;;;;;;;;;;;;;;4923665;29;19918;-78
2023/11/06 18:37:21;;;;;;;;;;;;;;;;;;4954580;29;20032;-79
2023/11/06 18:39:52;;;;;;;;;;;;;;;;;;4986258;28;19921;-80
2023/11/06 18:42:17;;;;;;;;;;;;;;;;;;4939635;29;19918;-79
2023/11/06 18:44:43;;;;;;;;;;;;;;;;;;4938707;29;19915;-78
2023/11/06 18:47:10;;;;;;;;;;;;;;;;;;4961786;28;19950;-80
2023/11/06 18:49:35;;;;;;;;;;;;;;;;;;4995254;28;19924;-79
2023/11/06 18:52:07;;;;;;;;;;;;;;;;;;4982819;28;20034;-80
2023/11/06 18:54:32;;;;;;;;;;;;;;;;;;4998232;28;20397;-79
2023/11/06 18:56:58;;;;;;;;;;;;;;;;;;5000533;28;19914;-80
2023/11/06 18:59:24;;;;;;;;;;;;;;;;;;4986540;28;20304;-78
2023/11/06 19:01:50;;;;;;;;;;;;;;;;;;4986883;28;19968;-79
2023/11/06 19:04:17;;;;;;;;;;;;;;;;;;4987134;28;20285;-79
2023/11/06 19:06:43;;;;;;;;;;;;;;;;;;5003999;28;20033;-79
2023/11/06 19:09:08;;;;;;;;;;;;;;;;;;4999086;28;19921;-79
2023/11/06 19:11:34;;;;;;;;;;;;;;;;;;5016255;28;19946;-78
2023/11/06 19:14:01;;;;;;;;;;;;;;;;;;4983342;28;19918;-78
2023/11/06 19:16:39;;;;;;;;;;;;;;;;;;4981862;28;19918;-78
2023/11/06 19:19:07;;;;;;;;;;;;;;;;;;5002363;28;19958;-80
2023/11/06 19:21:32;;;;;;;;;;;;;;;;;;4971433;29;19977;-78
2023/11/06 19:23:58;;;;;;;;;;;;;;;;;;4964207;28;19914;-79
2023/11/06 19:26:34;;;;;;;;;;;;;;;;;;5004731;28;19910;-78
2023/11/06 19:29:01;;;;;;;;;;;;;;;;;;5004583;28;19915;-79
2023/11/06 19:31:27;;;;;;;;;;;;;;;;;;4982156;28;19950;-79
2023/11/06 19:34:08;;;;;;;;;;;;;;;;;;4991665;28;19914;-78
2023/11/06 19:36:33;;;;;;;;;;;;;;;;;;4992917;28;19914;-79
2023/11/06 19:39:00;;;;;;;;;;;;;;;;;;4970018;28;19943;-79
2023/11/06 19:41:58;;;;;;;;;;;;;;;;;;4976187;28;20017;-80
2023/11/06 19:44:31;;;;;;;;;;;;;;;;;;4991516;28;19914;-79
2023/11/06 19:47:52;;;;;;;;;;;;;;;;;;4980572;28;19974;-80
2023/11/06 19:50:45;;;;;;;;;;;;;;;;;;4977779;28;20002;-80
2023/11/06 19:53:56;;;;;;;;;;;;;;;;;;5002219;28;19977;-78
2023/11/06 19:57:05;;;;;;;;;;;;;;;;;;4975997;28;19914;-79
2023/11/06 20:00:19;;;;;;;;;;;;;;;;;;4999354;28;20014;-81
2023/11/06 20:02:48;;;;;;;;;;;;;;;;;;4962191;28;19961;-80
2023/11/06 20:05:22;;;;;;;;;;;;;;;;;;4961509;29;19922;-80
2023/11/06 20:08:16;;;;;;;;;;;;;;;;;;4994470;28;19969;-80
2023/11/06 20:10:47;;;;;;;;;;;;;;;;;;4991676;28;19924;-80
2023/11/06 20:13:48;;;;;;;;;;;;;;;;;;4975196;28;19921;-80
2023/11/06 20:16:39;;;;;;;;;;;;;;;;;;4961926;28;20056;-79
2023/11/06 20:19:14;;;;;;;;;;;;;;;;;;4960720;29;19914;-79
2023/11/06 20:22:04;;;;;;;;;;;;;;;;;;4961607;28;19973;-79
2023/11/06 20:24:43;;;;;;;;;;;;;;;;;;4967259;28;19922;-78
2023/11/06 20:27:53;;;;;;;;;;;;;;;;;;4980572;28;19918;-79
2023/11/06 20:35:06;;;;;;;;;;;;;;;;;;4977602;28;19914;-80
2023/11/06 20:38:11;;;;;;;;;;;;;;;;;;4962549;28;19918;-81
2023/11/06 20:41:04;;;;;;;;;;;;;;;;;;4979405;28;19918;-78
2023/11/06 20:43:35;;;;;;;;;;;;;;;;;;4948134;28;20415;-80
2023/11/06 20:46:04;;;;;;;;;;;;;;;;;;4944332;28;19915;-79
2023/11/06 20:48:42;;;;;;;;;;;;;;;;;;4927724;29;19953;-78
2023/11/06 20:51:39;;;;;;;;;;;;;;;;;;4952411;28;19929;-80
2023/11/06 20:54:35;;;;;;;;;;;;;;;;;;4965523;28;19981;-80
2023/11/06 20:57:19;;;;;;;;;;;;;;;;;;4932055;28;19942;-79
2023/11/06 21:00:08;;;;;;;;;;;;;;;;;;4960846;28;19914;-79
2023/11/06 21:02:43;;;;;;;;;;;;;;;;;;4943894;29;19921;-78
2023/11/06 21:05:35;;;;;;;;;;;;;;;;;;4933304;29;19969;-80
2023/11/06 21:08:22;;;;;;;;;;;;;;;;;;4912763;28;19922;-79
2023/11/06 21:14:21;;;;;;;;;;;;;;;;;;4974166;28;20365;-79
2023/11/06 21:17:07;;;;;;;;;;;;;;;;;;4967851;28;19924;-79
2023/11/06 21:20:15;;;;;;;;;;;;;;;;;;4979985;28;19921;-78
2023/11/06 21:22:47;;;;;;;;;;;;;;;;;;4980509;28;19918;-80
2023/11/06 21:25:13;;;;;;;;;;;;;;;;;;4953239;28;19914;-80
2023/11/06 21:27:40;;;;;;;;;;;;;;;;;;4989724;28;19910;-81
2023/11/06 21:30:06;;;;;;;;;;;;;;;;;;4976414;28;19921;-81
2023/11/06 21:32:32;;;;;;;;;;;;;;;;;;4952704;28;19914;-80
2023/11/06 21:35:00;;;;;;;;;;;;;;;;;;4982898;28;19977;-81
2023/11/06 21:37:26;;;;;;;;;;;;;;;;;;4948866;28;19914;-81
2023/11/06 21:39:52;;;;;;;;;;;;;;;;;;4963664;28;19920;-80
2023/11/06 21:42:17;;;;;;;;;;;;;;;;;;4958989;29;19998;-80
2023/11/06 21:44:43;;;;;;;;;;;;;;;;;;4959387;29;19915;-81
2023/11/06 21:47:11;;;;;;;;;;;;;;;;;;4960349;28;20416;-81
2023/11/06 21:49:38;;;;;;;;;;;;;;;;;;4959567;29;20013;-82
2023/11/06 21:52:04;;;;;;;;;;;;;;;;;;4945913;29;19933;-81
2023/11/06 21:54:34;;;;;;;;;;;;;;;;;;4960126;29;19933;-79
2023/11/06 21:57:00;;;;;;;;;;;;;;;;;;4988225;28;19903;-80
2023/11/06 21:59:29;;;;;;;;;;;;;;;;;;4959249;29;19922;-80
2023/11/06 22:01:57;;;;;;;;;;;;;;;;;;5016968;28;19941;-81